Ana Sayfa
METAR-TAF:

METAR-TAF

Havaalanları :

Nosy Be, Madagaskar

Enlem: 13-19S, Boylam: 048-19E, yükseklik: 10 m

Güncel hava durumu gözlemi

Rapor saat 15:00 UTC de 1 saat ve 59 dakika önce yapıldı.
Rüzgar güney/güneybatıdan 2 kt
Sıcaklık 28°C
Nem 89%
Basınç 1010 hPa
Görüş mesafesi 10 km veya daha fazla
2000 ft yükseklikte parçalı bulutlu, Kümülonimbus.

METAR: FMNN 111500Z 20002KT 9999 SCT020CB 28/26 Q1010

Saat: 19:59 (16:59 UTC)

Tahmin

Rapor saat 11:00 UTC de 5 saat ve 59 dakika önce yapıldı.
Ayın 11'si saat 12 UTC'den ayın 12'si saat 12 UTC'ye kadar geçerli Tahmin
Rüzgar değişken yönden 5 kt
Görüş mesafesi 10 km veya daha fazla
2000 ft yükseklikte parçalı bulutlu
Olasılık 40% :
Geçici
ayın 11'si saat 15 UTC'den ayın 12'si saat 03 UTC'ye kadar
Görüş mesafesi: 4000 m
sağanak yağmurlar

TAF: FMNN 111100Z 1112/1212 VRB05KT 9999 SCT020 PROB40 TEMPO 1115/1203 4000 SHRA

4.000'den fazla havaalanı için hava durumu gözlemleri ve tahminleri (METAR ve TAF raporları).

Kullanılabilir istasyonlar harita üzerinde sarı ve kırmızı noktalarla gösterilir.

İstasyonun adını görmek için fareyi noktanın üzerinde gezdirin.

Sonrasında hava gözlem ve tahminlerini görmek için tıklayın.

Haritayı değiştirmek için: yaklaştırmak için siyah artı işaretli yeşil düğmeye ve uzaklaştırmak için de eksi işaretli düğmeye hızla tıklayın; bitişik haritalar için yeşil okları kullanın.


METAR-TAF: